createdAt,value
2018-01-08T00:00:41.829Z,10.42
2018-01-08T00:01:52.084Z,10.57
2018-01-08T00:03:01.879Z,10.57
2018-01-08T00:04:11.961Z,10.44
2018-01-08T00:05:22.123Z,10.51
2018-01-08T00:06:33.543Z,10.54
2018-01-08T00:07:43.641Z,10.49
2018-01-08T00:08:53.702Z,10.58
2018-01-08T00:10:03.761Z,10.54
2018-01-08T00:11:13.288Z,10.51
2018-01-08T00:12:23.349Z,10.49
2018-01-08T00:13:33.163Z,10.55
2018-01-08T00:14:43.208Z,10.52
2018-01-08T00:15:53.262Z,10.52
2018-01-08T00:17:03.057Z,10.49
2018-01-08T00:18:12.868Z,10.55
2018-01-08T00:19:22.382Z,10.57
2018-01-08T00:20:32.460Z,10.54
2018-01-08T00:21:42.517Z,10.51
2018-01-08T00:22:52.051Z,10.49
2018-01-08T00:24:02.121Z,10.47
2018-01-08T00:25:12.172Z,10.54
2018-01-08T00:26:21.697Z,10.51
2018-01-08T00:27:31.496Z,10.52
2018-01-08T00:28:41.569Z,10.55
2018-01-08T00:29:51.675Z,10.54
2018-01-08T00:31:01.770Z,10.55
2018-01-08T00:32:11.839Z,10.58
2018-01-08T00:33:21.875Z,10.65
2018-01-08T00:34:31.916Z,10.61
2018-01-08T00:35:41.710Z,10.63
2018-01-08T00:36:51.812Z,10.52
2018-01-08T00:38:01.611Z,10.59
2018-01-08T00:39:11.436Z,10.47
2018-01-08T00:40:21.223Z,10.58
2018-01-08T00:41:31.009Z,10.58
2018-01-08T00:42:41.070Z,10.52
2018-01-08T00:43:50.854Z,10.39
2018-01-08T00:45:00.904Z,10.49
2018-01-08T00:46:10.436Z,10.38
2018-01-08T00:47:20.514Z,10.46
2018-01-08T00:48:30.666Z,10.39
2018-01-08T00:49:40.716Z,10.38
2018-01-08T00:50:50.512Z,10.36
2018-01-08T00:52:00.333Z,10.33
2018-01-08T00:53:10.407Z,10.38
2018-01-08T00:54:20.467Z,10.41
2018-01-08T00:55:30.519Z,10.38
2018-01-08T00:56:40.317Z,10.42
2018-01-08T00:57:50.113Z,10.36
2018-01-08T00:58:59.918Z,10.39
2018-01-08T01:00:09.767Z,10.36
2018-01-08T01:01:19.889Z,10.35
2018-01-08T01:02:29.696Z,10.33
2018-01-08T01:03:39.484Z,10.36
2018-01-08T01:04:49.268Z,10.31
2018-01-08T01:05:59.392Z,10.44
2018-01-08T01:07:08.922Z,10.36
2018-01-08T01:08:18.713Z,10.31
2018-01-08T01:09:28.510Z,10.36
2018-01-08T01:10:38.308Z,10.36
2018-01-08T01:11:48.098Z,10.36
2018-01-08T01:12:58.336Z,10.32
2018-01-08T01:14:08.994Z,10.42
2018-01-08T01:15:19.052Z,10.44
2018-01-08T01:16:29.101Z,10.35
2018-01-08T01:17:39.164Z,10.46
2018-01-08T01:18:48.959Z,10.44
2018-01-08T01:19:58.996Z,10.44
2018-01-08T01:21:09.058Z,10.44
2018-01-08T01:22:19.124Z,10.46
2018-01-08T01:23:28.967Z,10.49
2018-01-08T01:24:38.761Z,10.39
2018-01-08T01:25:48.818Z,10.38
2018-01-08T01:26:58.623Z,10.44
2018-01-08T01:28:08.436Z,10.39
2018-01-08T01:29:18.542Z,10.38
2018-01-08T01:30:28.340Z,10.42
2018-01-08T01:31:38.380Z,10.39
2018-01-08T01:32:48.187Z,10.36
2018-01-08T01:33:58.236Z,10.36
2018-01-08T01:35:08.080Z,10.36
2018-01-08T01:36:18.157Z,10.33
2018-01-08T01:37:28.209Z,10.33
2018-01-08T01:38:38.348Z,10.41
2018-01-08T01:39:48.407Z,10.41
2018-01-08T01:40:58.183Z,10.35
2018-01-08T01:42:07.984Z,10.33
2018-01-08T01:43:17.773Z,10.44
2018-01-08T01:44:27.826Z,10.36
2018-01-08T01:45:37.879Z,10.35
2018-01-08T01:46:47.930Z,10.47
2018-01-08T01:47:57.720Z,10.36
2018-01-08T01:49:07.768Z,10.36
2018-01-08T01:50:17.553Z,10.33
2018-01-08T01:51:27.607Z,10.39
2018-01-08T01:52:37.704Z,10.33
2018-01-08T01:53:47.753Z,10.39
2018-01-08T01:54:57.556Z,10.38
2018-01-08T01:56:07.104Z,10.32
2018-01-08T01:57:16.878Z,10.38
2018-01-08T01:58:26.965Z,10.31
2018-01-08T01:59:36.752Z,10.29
2018-01-08T02:00:46.548Z,10.29
2018-01-08T02:01:56.355Z,10.28
2018-01-08T02:03:06.416Z,10.23
2018-01-08T02:04:16.532Z,10.23
2018-01-08T02:05:26.582Z,10.23
2018-01-08T02:06:36.698Z,10.39
2018-01-08T02:07:46.760Z,10.31
2018-01-08T02:08:56.562Z,10.33
2018-01-08T02:10:06.686Z,10.36
2018-01-08T02:11:16.739Z,10.42
2018-01-08T02:12:26.544Z,10.46
2018-01-08T02:13:36.329Z,10.47
2018-01-08T02:14:46.386Z,10.35
2018-01-08T02:15:56.186Z,10.44
2018-01-08T02:17:06.240Z,10.42
2018-01-08T02:18:16.071Z,10.58
2018-01-08T02:19:25.602Z,10.55
2018-01-08T02:20:35.653Z,10.51
2018-01-08T02:21:45.816Z,10.44
2018-01-08T02:22:55.857Z,10.39
2018-01-08T02:24:05.914Z,10.47
2018-01-08T02:25:15.703Z,10.39
2018-01-08T02:26:25.793Z,10.47
2018-01-08T02:27:35.850Z,10.44
2018-01-08T02:28:45.662Z,10.44
2018-01-08T02:29:55.192Z,10.44
2018-01-08T02:31:05.266Z,10.38
2018-01-08T02:32:15.310Z,10.36
2018-01-08T02:33:25.380Z,10.46
2018-01-08T02:34:35.612Z,10.42
2018-01-08T02:35:45.692Z,10.47
2018-01-08T02:36:55.498Z,10.41
2018-01-08T02:38:05.627Z,10.36
2018-01-08T02:39:15.788Z,10.47
2018-01-08T02:40:25.588Z,10.44
2018-01-08T02:41:35.649Z,10.36
2018-01-08T02:42:45.699Z,10.46
2018-01-08T02:43:55.861Z,10.46
2018-01-08T02:45:05.669Z,10.41
2018-01-08T02:46:15.462Z,10.41
2018-01-08T02:47:25.512Z,10.47
2018-01-08T02:48:37.685Z,10.47
2018-01-08T02:49:47.482Z,10.44
2018-01-08T02:50:57.649Z,10.38
2018-01-08T02:52:07.716Z,10.46
2018-01-08T02:53:17.255Z,10.46
2018-01-08T02:54:27.311Z,10.54
2018-01-08T02:55:37.392Z,10.42
2018-01-08T02:56:47.501Z,10.41
2018-01-08T02:57:57.313Z,10.41
2018-01-08T02:59:07.375Z,10.39
2018-01-08T03:00:17.895Z,10.38
2018-01-08T03:01:28.051Z,10.42
2018-01-08T03:02:38.122Z,10.41
2018-01-08T03:34:29.474Z,7.75
2018-01-08T03:35:38.995Z,7.63
2018-01-08T03:36:49.054Z,7.59
2018-01-08T03:37:59.154Z,7.64
2018-01-08T03:39:09.210Z,7.73
2018-01-08T03:40:19.302Z,7.73
2018-01-08T03:41:29.365Z,7.89
2018-01-08T03:42:39.179Z,8.04
2018-01-08T03:43:49.236Z,8.24
2018-01-08T03:44:58.769Z,8.26
2018-01-08T03:46:08.844Z,8.47
2018-01-08T03:47:18.898Z,8.6
2018-01-08T03:48:28.958Z,8.62
2018-01-08T03:49:39.091Z,8.76
2018-01-08T03:50:48.883Z,8.94
2018-01-08T03:51:58.950Z,9.12
2018-01-08T03:53:09.007Z,9.16
2018-01-08T03:54:19.068Z,9.16
2018-01-08T03:55:28.873Z,9.17
2018-01-08T03:56:38.943Z,9.39
2018-01-08T03:57:48.774Z,9.42
2018-01-08T03:58:58.831Z,9.55
2018-01-08T04:00:08.870Z,9.62
2018-01-08T04:01:18.666Z,9.64
2018-01-08T04:02:28.721Z,9.62
2018-01-08T04:03:38.759Z,9.71
2018-01-08T04:04:48.884Z,9.82
2018-01-08T04:05:58.671Z,9.84
2018-01-08T04:07:08.748Z,9.85
2018-01-08T04:08:19.034Z,9.93
2018-01-08T04:09:30.082Z,9.85
2018-01-08T04:10:40.146Z,9.8
2018-01-08T04:11:49.938Z,9.84
2018-01-08T04:12:59.991Z,9.85
2018-01-08T04:14:10.103Z,9.99
2018-01-08T04:15:20.210Z,9.99
2018-01-08T04:16:30.005Z,10.02
2018-01-08T04:17:39.834Z,10.02
2018-01-08T04:18:49.894Z,10.02
2018-01-08T04:20:00.349Z,10.03
2018-01-08T04:21:09.977Z,10.07
2018-01-08T04:22:20.032Z,10.13
2018-01-08T04:23:30.074Z,10
2018-01-08T04:24:40.126Z,10.13
2018-01-08T04:25:50.220Z,10.14
2018-01-08T04:26:59.549Z,10.05
2018-01-08T04:28:09.875Z,10.18
2018-01-08T04:29:20.451Z,10.1
2018-01-08T04:30:30.254Z,10.13
2018-01-08T04:31:40.297Z,10.18
2018-01-08T04:32:50.157Z,10.17
2018-01-08T04:33:59.961Z,10.13
2018-01-08T04:35:10.016Z,10.02
2018-01-08T04:36:20.062Z,10.02
2018-01-08T04:37:30.113Z,10.02
2018-01-08T04:38:40.157Z,10.03
2018-01-08T04:39:50.212Z,10.07
2018-01-08T04:41:00.015Z,10.11
2018-01-08T04:42:09.802Z,10.08
2018-01-08T04:43:19.609Z,10.08
2018-01-08T04:44:29.668Z,10.07
2018-01-08T04:45:39.754Z,10.08
2018-01-08T04:46:49.813Z,10.1
2018-01-08T04:47:59.600Z,10.05
2018-01-08T04:49:09.667Z,10.1
2018-01-08T04:50:19.527Z,10.11
2018-01-08T04:51:29.325Z,9.99
2018-01-08T04:52:39.111Z,10.02
2018-01-08T04:53:48.639Z,10.03
2018-01-08T04:54:58.431Z,10.07
2018-01-08T04:56:08.231Z,10.08
2018-01-08T04:57:18.025Z,10.11
2018-01-08T04:58:28.071Z,10.1
2018-01-08T04:59:38.135Z,10.13
2018-01-08T05:00:48.018Z,10.13
2018-01-08T05:01:58.074Z,10.17
2018-01-08T05:03:08.137Z,10.08
2018-01-08T05:04:18.179Z,10.11
2018-01-08T05:05:28.286Z,10.08
2018-01-08T05:06:38.075Z,10.08
2018-01-08T05:07:47.874Z,10.17
2018-01-08T05:08:57.936Z,10.17
2018-01-08T05:10:07.726Z,10.08
2018-01-08T05:11:17.785Z,10.05
2018-01-08T05:12:27.319Z,10.07
2018-01-08T05:13:37.157Z,10.02
2018-01-08T05:14:47.215Z,10.08
2018-01-08T05:15:57.007Z,10.07
2018-01-08T05:17:07.111Z,10.07
2018-01-08T05:18:17.156Z,10.03
2018-01-08T05:19:27.260Z,10.05
2018-01-08T05:20:37.309Z,10.1
2018-01-08T05:21:46.849Z,10.08
2018-01-08T05:22:56.991Z,10.08
2018-01-08T05:24:07.087Z,10.14
2018-01-08T05:25:17.180Z,10.02
2018-01-08T05:26:26.705Z,10.07
2018-01-08T05:27:36.806Z,10.11
2018-01-08T05:28:46.860Z,10.13
2018-01-08T05:29:56.920Z,10.1
2018-01-08T05:31:06.711Z,10.14
2018-01-08T05:32:16.746Z,10.15
2018-01-08T05:33:26.542Z,10.18
2018-01-08T05:34:36.584Z,10.11
2018-01-08T05:35:46.646Z,10.08
2018-01-08T05:36:56.462Z,9.99
2018-01-08T05:38:06.280Z,10.03
2018-01-08T05:39:16.337Z,9.99
2018-01-08T05:40:26.446Z,10.07
2018-01-08T05:41:36.515Z,10.05
2018-01-08T05:42:46.330Z,10.05
2018-01-08T05:43:56.123Z,10.05
2018-01-08T05:45:06.181Z,10.1
2018-01-08T05:46:16.242Z,10.13
2018-01-08T05:47:26.284Z,10.11
2018-01-08T05:48:35.816Z,10.1
2018-01-08T05:49:45.888Z,9.99
2018-01-08T05:50:55.173Z,10.1
2018-01-08T05:52:05.215Z,10.07
2018-01-08T05:53:15.320Z,10.05
2018-01-08T05:54:25.379Z,9.95
2018-01-08T05:55:35.450Z,9.92
2018-01-08T05:56:45.507Z,9.92
2018-01-08T05:57:55.297Z,10.02
2018-01-08T05:59:05.353Z,9.96
2018-01-08T06:00:15.428Z,9.95
2018-01-08T06:01:25.492Z,9.84
2018-01-08T06:02:35.290Z,9.89
2018-01-08T06:03:45.348Z,9.82
2018-01-08T06:04:55.416Z,9.89
2018-01-08T06:06:05.578Z,9.85
2018-01-08T06:07:15.627Z,9.84
2018-01-08T06:08:25.680Z,9.85
2018-01-08T06:09:37.022Z,9.85
2018-01-08T06:10:46.848Z,9.81
2018-01-08T06:11:56.990Z,9.82
2018-01-08T06:13:07.059Z,9.84
2018-01-08T06:14:16.841Z,9.84
2018-01-08T06:15:26.627Z,9.77
2018-01-08T06:16:36.437Z,9.81
2018-01-08T06:17:46.318Z,9.74
2018-01-08T06:18:56.112Z,9.71
2018-01-08T06:20:05.688Z,9.78
2018-01-08T06:21:15.505Z,9.77
2018-01-08T06:22:25.306Z,9.85
2018-01-08T06:23:35.109Z,9.74
2018-01-08T06:24:45.171Z,9.85
2018-01-08T06:25:55.233Z,9.71
2018-01-08T06:27:04.771Z,9.85
2018-01-08T06:28:14.662Z,9.71
2018-01-08T06:29:24.476Z,9.85
2018-01-08T06:30:34.274Z,9.82
2018-01-08T06:31:44.323Z,9.74
2018-01-08T06:32:54.436Z,9.75
2018-01-08T06:34:04.499Z,9.88
2018-01-08T06:35:14.292Z,9.78
2018-01-08T06:36:24.348Z,9.71
2018-01-08T06:37:34.453Z,9.71
2018-01-08T06:38:44.495Z,9.88
2018-01-08T06:39:54.296Z,9.84
2018-01-08T06:41:04.356Z,9.74
2018-01-08T06:42:14.395Z,9.78
2018-01-08T06:43:24.444Z,9.78
2018-01-08T06:44:34.234Z,9.81
2018-01-08T06:45:44.041Z,9.88
2018-01-08T06:46:54.134Z,9.85
2018-01-08T06:48:04.020Z,9.81
2018-01-08T06:49:13.803Z,9.81
2018-01-08T06:50:23.858Z,9.89
2018-01-08T06:51:33.919Z,9.84
2018-01-08T06:52:44.929Z,9.84
2018-01-08T06:53:54.988Z,9.88
2018-01-08T06:55:04.527Z,9.84
2018-01-08T06:56:14.580Z,9.88
2018-01-08T06:57:24.676Z,9.89
2018-01-08T06:58:34.751Z,9.84
2018-01-08T06:59:45.918Z,9.84
2018-01-08T07:00:55.953Z,9.82
2018-01-08T07:02:05.508Z,9.84
2018-01-08T07:03:15.302Z,9.89
2018-01-08T07:04:25.144Z,9.96
2018-01-08T07:05:35.196Z,9.93
2018-01-08T07:06:45.227Z,9.96
2018-01-08T07:07:55.013Z,9.96
2018-01-08T07:09:05.081Z,9.95
2018-01-08T07:10:15.207Z,9.99
2018-01-08T07:11:25.010Z,9.96
2018-01-08T07:12:35.080Z,9.95
2018-01-08T07:13:44.878Z,9.89
2018-01-08T07:14:54.676Z,9.82
2018-01-08T07:16:04.731Z,9.82
2018-01-08T07:17:14.533Z,9.81
2018-01-08T07:18:24.325Z,9.84
2018-01-08T07:19:34.379Z,9.84
2018-01-08T07:20:44.174Z,9.88
2018-01-08T07:21:53.968Z,9.81
2018-01-08T07:23:03.771Z,9.82
2018-01-08T07:24:13.299Z,9.92
2018-01-08T07:25:23.092Z,9.95
2018-01-08T07:26:32.903Z,9.9
2018-01-08T07:27:42.969Z,9.93
2018-01-08T07:28:53.024Z,9.95
2018-01-08T07:30:02.828Z,9.96
2018-01-08T07:31:12.630Z,9.93
2018-01-08T07:32:22.678Z,10.02
2018-01-08T07:33:32.784Z,10.02
2018-01-08T07:34:42.577Z,9.99
2018-01-08T07:35:52.632Z,10.02
2018-01-08T07:37:02.685Z,10
2018-01-08T07:38:12.728Z,10.18
2018-01-08T07:39:22.785Z,10.11
2018-01-08T07:40:32.861Z,10.18
2018-01-08T07:41:42.980Z,10.13
2018-01-08T07:42:53.023Z,10.1
2018-01-08T07:44:03.077Z,10.14
2018-01-08T07:45:14.245Z,10.18
2018-01-08T07:46:24.288Z,10.17
2018-01-08T07:47:34.090Z,10.26
2018-01-08T07:48:43.879Z,10.13
2018-01-08T07:49:53.918Z,10.29
2018-01-08T07:51:03.450Z,10.33
2018-01-08T07:52:13.515Z,10.31
2018-01-08T07:53:23.319Z,10.26
2018-01-08T07:54:33.389Z,10.25
2018-01-08T07:55:43.474Z,10.41
2018-01-08T07:56:53.523Z,10.41
2018-01-08T07:58:03.580Z,10.41
2018-01-08T07:59:13.382Z,10.39
2018-01-08T08:00:23.429Z,10.46
2018-01-08T08:01:32.957Z,10.49
2018-01-08T08:02:42.743Z,10.47
2018-01-08T08:03:52.849Z,10.55
2018-01-08T08:05:02.886Z,10.51
2018-01-08T08:06:12.981Z,10.51
2018-01-08T08:07:23.021Z,10.55
2018-01-08T08:08:32.949Z,10.59
2018-01-08T08:09:43.002Z,10.51
2018-01-08T08:10:53.055Z,10.49
2018-01-08T08:12:03.126Z,10.52
2018-01-08T08:13:13.294Z,10.55
2018-01-08T08:14:23.357Z,10.58
2018-01-08T08:15:33.415Z,10.57
2018-01-08T08:16:43.465Z,10.54
2018-01-08T08:17:53.261Z,10.52
2018-01-08T08:19:03.369Z,10.52
2018-01-08T08:20:13.439Z,10.52
2018-01-08T08:21:23.504Z,10.47
2018-01-08T08:22:34.557Z,10.52
2018-01-08T08:23:44.099Z,10.44
2018-01-08T08:24:53.651Z,10.44
2018-01-08T08:26:03.691Z,10.51
2018-01-08T08:27:13.758Z,10.36
2018-01-08T08:28:23.944Z,10.39
2018-01-08T08:29:34.008Z,10.42
2018-01-08T08:30:44.105Z,10.44
2018-01-08T08:31:54.155Z,10.44
2018-01-08T08:33:04.248Z,10.36
2018-01-08T08:34:14.044Z,10.38
2018-01-08T08:35:24.106Z,10.42
2018-01-08T08:36:34.197Z,10.36
2018-01-08T08:37:44.250Z,10.33
2018-01-08T08:38:54.304Z,10.41
2018-01-08T08:40:04.349Z,10.44
2018-01-08T08:41:14.456Z,10.42
2018-01-08T08:42:24.527Z,10.39
2018-01-08T08:43:34.583Z,10.55
2018-01-08T08:44:44.651Z,10.54
2018-01-08T08:45:54.698Z,10.58
2018-01-08T08:47:04.486Z,10.49
2018-01-08T08:48:14.013Z,10.57
2018-01-08T08:49:23.812Z,10.54
2018-01-08T08:50:33.855Z,10.38
2018-01-08T08:51:43.891Z,10.39
2018-01-08T08:52:53.403Z,10.26
2018-01-08T08:54:03.242Z,10.18
2018-01-08T08:55:13.505Z,10.23
2018-01-08T08:56:23.033Z,10.21
2018-01-08T08:57:33.081Z,10.26
2018-01-08T08:58:43.138Z,10.21
2018-01-08T08:59:52.668Z,10.29
2018-01-08T09:01:03.520Z,10.31
2018-01-08T09:02:13.608Z,10.35
2018-01-08T09:03:23.670Z,10.36
2018-01-08T09:04:33.443Z,10.39
2018-01-08T09:05:43.230Z,10.39
2018-01-08T09:06:53.298Z,10.36
2018-01-08T09:08:03.093Z,10.33
2018-01-08T09:09:13.159Z,10.35
2018-01-08T09:10:23.258Z,10.26
2018-01-08T09:11:33.380Z,10.28
2018-01-08T09:12:43.434Z,10.2
2018-01-08T09:13:53.496Z,10.31
2018-01-08T09:15:04.550Z,10.29
2018-01-08T09:16:14.624Z,10.26
2018-01-08T09:17:24.420Z,10.21
2018-01-08T09:18:34.466Z,10.31
2018-01-08T09:19:44.548Z,10.28
2018-01-08T09:20:54.596Z,10.25
2018-01-08T09:22:04.653Z,10.25
2018-01-08T09:23:14.715Z,10.32
2018-01-08T09:24:24.827Z,10.23
2018-01-08T09:25:34.623Z,10.28
2018-01-08T09:26:44.684Z,10.35
2018-01-08T09:27:54.475Z,10.31
2018-01-08T09:29:04.527Z,10.23
2018-01-08T09:30:14.117Z,10.21
2018-01-08T09:31:24.188Z,10.2
2018-01-08T09:32:34.247Z,10.21
2018-01-08T09:33:44.314Z,10.33
2018-01-08T09:34:54.166Z,10.28
2018-01-08T09:36:04.226Z,10.26
2018-01-08T09:37:14.288Z,10.36
2018-01-08T09:38:23.828Z,10.39
2018-01-08T09:39:33.926Z,10.42
2018-01-08T09:40:43.720Z,10.42
2018-01-08T09:41:53.884Z,10.33
2018-01-08T09:43:04.961Z,10.38
2018-01-08T09:44:15.105Z,10.44
2018-01-08T09:45:25.398Z,10.46
2018-01-08T09:46:35.458Z,10.49
2018-01-08T09:47:45.320Z,10.46
2018-01-08T09:48:55.395Z,10.39
2018-01-08T09:50:05.489Z,10.49
2018-01-08T09:51:15.048Z,10.42
2018-01-08T09:52:25.162Z,10.41
2018-01-08T09:53:34.777Z,10.35
2018-01-08T09:54:44.846Z,10.47
2018-01-08T09:55:54.936Z,10.47
2018-01-08T09:57:04.732Z,10.52
2018-01-08T09:58:14.877Z,10.51
2018-01-08T09:59:25.087Z,10.65
2018-01-08T10:00:36.442Z,10.63
2018-01-08T10:01:46.515Z,10.63
2018-01-08T10:02:56.635Z,10.51
2018-01-08T10:04:06.454Z,10.44
2018-01-08T10:05:16.546Z,10.41
2018-01-08T10:06:26.612Z,10.54
2018-01-08T10:07:36.463Z,10.55
2018-01-08T10:08:46.305Z,10.61
2018-01-08T10:09:56.470Z,10.51
2018-01-08T10:11:06.549Z,10.55
2018-01-08T10:12:16.756Z,10.69
2018-01-08T10:13:26.838Z,10.66
2018-01-08T10:14:36.998Z,10.7
2018-01-08T10:15:46.950Z,10.66
2018-01-08T10:16:57.013Z,10.69
2018-01-08T10:18:07.929Z,10.77
2018-01-08T10:19:18.189Z,10.79
2018-01-08T10:20:28.266Z,10.77
2018-01-08T10:21:38.099Z,10.84
2018-01-08T10:22:48.165Z,10.79
2018-01-08T10:23:58.253Z,10.84
2018-01-08T10:25:08.052Z,10.76
2018-01-08T10:26:18.132Z,10.83
2018-01-08T10:27:28.216Z,10.8
2018-01-08T10:28:38.317Z,10.84
2018-01-08T10:29:48.167Z,10.94
2018-01-08T10:30:58.324Z,10.9
2018-01-08T10:32:08.400Z,10.85
2018-01-08T10:33:19.596Z,10.94
2018-01-08T10:34:29.684Z,10.91
2018-01-08T10:35:39.810Z,10.85
2018-01-08T10:36:49.887Z,10.88
2018-01-08T10:37:59.976Z,10.98
2018-01-08T10:39:09.835Z,10.94
2018-01-08T10:40:19.892Z,10.92
2018-01-08T10:41:30.050Z,10.85
2018-01-08T10:42:39.924Z,10.9
2018-01-08T10:43:50.023Z,10.87
2018-01-08T10:45:00.187Z,10.9
2018-01-08T10:46:10.299Z,10.9
2018-01-08T10:47:20.576Z,10.83
2018-01-08T10:48:30.883Z,10.9
2018-01-08T10:49:42.123Z,10.91
2018-01-08T10:50:52.276Z,10.9
2018-01-08T10:52:02.366Z,10.9
2018-01-08T10:53:12.201Z,10.87
2018-01-08T10:54:22.003Z,10.9
2018-01-08T10:55:31.939Z,10.83
2018-01-08T10:56:42.182Z,10.76
2018-01-08T10:57:52.248Z,10.77
2018-01-08T10:59:02.485Z,10.88
2018-01-08T11:00:14.113Z,10.8
2018-01-08T11:01:23.952Z,10.84
2018-01-08T11:02:34.103Z,10.8
2018-01-08T11:03:44.230Z,10.87
2018-01-08T11:04:54.405Z,10.76
2018-01-08T11:06:04.525Z,10.76
2018-01-08T11:07:14.335Z,10.8
2018-01-08T11:08:24.446Z,10.79
2018-01-08T11:09:34.508Z,10.79
2018-01-08T11:10:44.554Z,10.77
2018-01-08T11:11:54.647Z,10.76
2018-01-08T11:13:04.454Z,10.73
2018-01-08T11:14:14.345Z,10.73
2018-01-08T11:15:24.453Z,10.72
2018-01-08T11:16:34.516Z,10.69
2018-01-08T11:17:44.417Z,10.69
2018-01-08T11:18:54.220Z,10.72
2018-01-08T11:20:04.059Z,10.69
2018-01-08T11:21:14.135Z,10.72
2018-01-08T11:22:24.297Z,10.7
2018-01-08T11:23:34.433Z,10.79
2018-01-08T11:24:44.498Z,10.84
2018-01-08T11:25:54.629Z,10.75
2018-01-08T11:27:04.468Z,10.79
2018-01-08T11:28:15.924Z,10.77
2018-01-08T11:29:25.986Z,10.76
2018-01-08T11:30:36.067Z,10.83
2018-01-08T11:31:46.150Z,10.8
2018-01-08T11:32:56.227Z,10.84
2018-01-08T11:34:06.293Z,10.79
2018-01-08T11:35:16.433Z,10.84
2018-01-08T11:36:26.556Z,10.8
2018-01-08T11:37:36.414Z,10.76
2018-01-08T11:38:46.498Z,10.79
2018-01-08T11:39:56.619Z,10.79
2018-01-08T11:41:06.454Z,10.77
2018-01-08T11:42:16.614Z,10.79
2018-01-08T11:43:26.727Z,10.76
2018-01-08T11:44:36.787Z,10.7
2018-01-08T11:45:46.866Z,10.75
2018-01-08T11:46:56.946Z,10.79
2018-01-08T11:48:07.380Z,10.69
2018-01-08T11:49:17.506Z,10.66
2018-01-08T11:50:27.619Z,10.63
2018-01-08T11:51:37.734Z,10.73
2018-01-08T11:52:47.872Z,10.73
2018-01-08T11:53:58.004Z,10.66
2018-01-08T11:55:08.149Z,10.72
2018-01-08T11:56:17.962Z,10.65
2018-01-08T11:57:28.039Z,10.67
2018-01-08T11:58:38.135Z,10.67
2018-01-08T11:59:48.216Z,10.63
2018-01-08T12:00:58.400Z,10.66
2018-01-08T12:02:08.251Z,10.65
2018-01-08T12:03:18.055Z,10.66
2018-01-08T12:04:28.143Z,10.67
2018-01-08T12:05:38.222Z,10.69
2018-01-08T12:06:48.023Z,10.69
2018-01-08T12:07:58.256Z,10.65
2018-01-08T12:09:08.325Z,10.65
2018-01-08T12:10:18.157Z,10.63
2018-01-08T12:11:28.242Z,10.61
2018-01-08T12:12:38.353Z,10.63
2018-01-08T12:13:48.470Z,10.65
2018-01-08T12:14:58.580Z,10.67
2018-01-08T12:16:08.691Z,10.72
2018-01-08T12:17:18.749Z,10.63
2018-01-08T12:18:28.573Z,10.57
2018-01-08T12:19:40.025Z,10.57
2018-01-08T12:20:50.180Z,10.58
2018-01-08T12:21:59.989Z,10.54
2018-01-08T12:23:10.211Z,10.54
2018-01-08T12:24:20.342Z,10.58
2018-01-08T12:25:30.487Z,10.52
2018-01-08T12:26:40.579Z,10.51
2018-01-08T12:27:50.430Z,10.52
2018-01-08T12:29:00.518Z,10.49
2018-01-08T12:30:10.674Z,10.55
2018-01-08T12:31:20.756Z,10.55
2018-01-08T12:32:30.582Z,10.54
2018-01-08T12:33:40.707Z,10.51
2018-01-08T12:34:50.767Z,10.59
2018-01-08T12:36:00.905Z,10.49
2018-01-08T12:37:10.753Z,10.51
2018-01-08T12:38:20.841Z,10.47
2018-01-08T12:39:30.915Z,10.55
2018-01-08T12:40:40.724Z,10.54
2018-01-08T12:41:50.340Z,10.47
2018-01-08T12:43:00.216Z,10.46
2018-01-08T12:44:10.330Z,10.51
2018-01-08T12:45:20.154Z,10.39
2018-01-08T12:46:30.216Z,10.42
2018-01-08T12:47:40.030Z,10.36
2018-01-08T12:48:50.106Z,10.38
2018-01-08T12:50:00.261Z,10.38
2018-01-08T12:51:10.363Z,10.33
2018-01-08T12:52:20.576Z,10.32
2018-01-08T12:53:30.753Z,10.36
2018-01-08T12:54:40.620Z,10.28
2018-01-08T12:55:50.693Z,10.26
2018-01-08T12:57:00.511Z,10.29
2018-01-08T12:58:10.586Z,10.39
2018-01-08T12:59:20.605Z,10.31
2018-01-08T13:00:30.702Z,10.33
2018-01-08T13:01:40.782Z,10.36
2018-01-08T13:02:50.558Z,10.32
2018-01-08T13:04:00.692Z,10.42
2018-01-08T13:05:10.578Z,10.44
2018-01-08T13:06:20.639Z,10.44
2018-01-08T13:07:30.759Z,10.47
2018-01-08T13:08:40.840Z,10.41
2018-01-08T13:09:50.636Z,10.47
2018-01-08T13:11:00.506Z,10.44
2018-01-08T13:12:10.352Z,10.44
2018-01-08T13:13:20.245Z,10.35
2018-01-08T13:14:30.338Z,10.42
2018-01-08T13:15:40.413Z,10.25
2018-01-08T13:16:50.233Z,10.31
2018-01-08T13:17:59.796Z,10.23
2018-01-08T13:19:09.905Z,10.29
2018-01-08T13:20:19.961Z,10.23
2018-01-08T13:21:30.050Z,10.28
2018-01-08T13:22:40.988Z,10.33
2018-01-08T13:23:51.122Z,10.28
2018-01-08T13:25:01.000Z,10.23
2018-01-08T13:26:10.876Z,10.26
2018-01-08T13:27:20.964Z,10.26
2018-01-08T13:28:31.102Z,10.31
2018-01-08T13:29:41.200Z,10.25
2018-01-08T13:30:51.279Z,10.21
2018-01-08T13:32:01.394Z,10.26
2018-01-08T13:33:12.064Z,10.25
2018-01-08T13:34:22.456Z,10.32
2018-01-08T13:35:32.585Z,10.32
2018-01-08T13:36:42.705Z,10.29
2018-01-08T13:37:52.801Z,10.31
2018-01-08T13:39:03.233Z,10.29
2018-01-08T13:40:13.314Z,10.29
2018-01-08T13:41:23.414Z,10.21
2018-01-08T13:42:33.248Z,10.2
2018-01-08T13:43:43.070Z,10.25
2018-01-08T13:44:53.143Z,10.13
2018-01-08T13:46:02.970Z,10.15
2018-01-08T13:47:13.055Z,10.13
2018-01-08T13:48:23.132Z,10.15
2018-01-08T13:49:32.993Z,10.14
2018-01-08T13:50:42.815Z,10.13
2018-01-08T13:51:52.915Z,10.15
2018-01-08T13:53:03.090Z,10.11
2018-01-08T13:54:13.162Z,10.13
2018-01-08T13:55:22.980Z,10.1
2018-01-08T13:56:33.066Z,10.14
2018-01-08T13:57:43.218Z,10.15
2018-01-08T13:58:53.116Z,10.13
2018-01-08T14:00:03.221Z,10.11
2018-01-08T14:01:13.331Z,10.07
2018-01-08T14:02:23.193Z,10.08
2018-01-08T14:03:33.001Z,10
2018-01-08T14:04:43.140Z,10.02
2018-01-08T14:05:52.944Z,9.96
2018-01-08T14:07:03.038Z,10.07
2018-01-08T14:08:13.137Z,10.07
2018-01-08T14:09:23.212Z,10.03
2018-01-08T14:10:33.343Z,10.05
2018-01-08T14:11:43.194Z,10.05
2018-01-08T14:12:53.367Z,10.07
2018-01-08T14:14:03.469Z,10.07
2018-01-08T14:15:13.599Z,10.03
2018-01-08T14:16:23.454Z,10.07
2018-01-08T14:17:33.324Z,10.07
2018-01-08T14:18:42.990Z,10.07
2018-01-08T14:19:53.180Z,10.07
2018-01-08T14:21:03.308Z,10.02
2018-01-08T14:22:13.580Z,10.05
2018-01-08T14:23:23.454Z,10.02
2018-01-08T14:24:33.583Z,10.05
2018-01-08T14:25:43.713Z,10.03
2018-01-08T14:26:53.860Z,10.08
2018-01-08T14:28:03.960Z,10.02
2018-01-08T14:29:15.112Z,9.93
2018-01-08T14:30:25.583Z,10
2018-01-08T14:31:35.681Z,9.92
2018-01-08T14:32:45.798Z,9.95
2018-01-08T14:33:55.645Z,9.92
2018-01-08T14:35:05.743Z,9.9
2018-01-08T14:36:15.931Z,9.93
2018-01-08T14:37:26.230Z,9.85
2018-01-08T14:38:36.359Z,9.85
2018-01-08T14:39:46.070Z,9.84
2018-01-08T14:40:56.139Z,9.8
2018-01-08T14:42:06.247Z,9.88
2018-01-08T14:43:16.368Z,9.85
2018-01-08T14:44:26.473Z,9.88
2018-01-08T14:45:36.692Z,9.82
2018-01-08T14:46:46.764Z,9.84
2018-01-08T14:47:56.876Z,9.84
2018-01-08T14:49:06.990Z,9.84
2018-01-08T14:50:16.809Z,9.85
2018-01-08T14:51:26.638Z,9.8
2018-01-08T14:52:36.714Z,9.88
2018-01-08T14:53:46.536Z,9.84
2018-01-08T14:54:56.698Z,9.82
2018-01-08T14:56:06.527Z,9.75
2018-01-08T14:57:16.652Z,9.74
2018-01-08T14:58:26.718Z,9.64
2018-01-08T14:59:36.902Z,9.59
2018-01-08T15:00:47.017Z,9.55
2018-01-08T15:01:57.085Z,9.59
2018-01-08T15:03:07.168Z,9.63
2018-01-08T15:04:17.298Z,9.55
2018-01-08T15:05:27.425Z,9.52
2018-01-08T15:06:37.279Z,9.56
2018-01-08T15:07:47.441Z,9.41
2018-01-08T15:08:57.328Z,9.59
2018-01-08T15:10:07.444Z,9.5
2018-01-08T15:11:17.528Z,9.44
2018-01-08T15:12:29.107Z,9.41
2018-01-08T15:13:39.341Z,9.52
2018-01-08T15:14:49.470Z,9.53
2018-01-08T15:16:01.205Z,9.53
2018-01-08T15:17:11.333Z,9.45
2018-01-08T15:18:21.497Z,9.48
2018-01-08T15:19:31.410Z,9.53
2018-01-08T15:20:41.222Z,9.59
2018-01-08T15:21:51.307Z,9.59
2018-01-08T15:23:01.396Z,9.57
2018-01-08T15:24:12.922Z,9.57
2018-01-08T15:25:23.040Z,9.64
2018-01-08T15:26:32.996Z,9.57
2018-01-08T15:27:43.147Z,9.57
2018-01-08T15:28:53.238Z,9.56
2018-01-08T15:30:03.202Z,9.57
2018-01-08T15:31:13.347Z,9.63
2018-01-08T15:32:23.483Z,9.48
2018-01-08T15:33:33.612Z,9.56
2018-01-08T15:34:44.586Z,9.62
2018-01-08T15:35:54.683Z,9.62
2018-01-08T15:37:04.772Z,9.59
2018-01-08T15:38:15.367Z,9.63
2018-01-08T15:39:25.432Z,9.63
2018-01-08T15:40:35.672Z,9.63
2018-01-08T15:41:45.817Z,9.57